Time;durP1;ratioP1;P1;durP2;ratioP2;P2;SDS_P1;SDS_P2;PMS_P1;PMS_P2;Temp;Humidity;BMP_temperature;BMP_pressure;BME280_temperature;BME280_humidity;BME280_pressure;Samples;Min_cycle;Max_cycle;Signal;HPM_P1;HPM_P2
2022/09/07 00:00:04;;;;;;;4.72;2.30;;;;;;;17.74;100.00;98748.38;5111050;28;20407;-86
2022/09/07 00:02:31;;;;;;;7.72;2.65;;;;;;;17.74;100.00;98751.97;5109515;28;20036;-86
2022/09/07 00:04:58;;;;;;;7.38;2.33;;;;;;;17.88;100.00;98755.25;5111094;28;20048;-86
2022/09/07 00:07:24;;;;;;;7.95;2.30;;;;;;;17.83;100.00;98738.69;5111157;27;20562;-86
2022/09/07 00:09:51;;;;;;;3.70;2.50;;;;;;;17.80;100.00;98748.25;5110911;28;20062;-86
2022/09/07 00:12:18;;;;;;;8.68;2.45;;;;;;;17.88;100.00;98755.25;5110435;28;20051;-85
2022/09/07 00:14:44;;;;;;;5.55;2.40;;;;;;;17.90;100.00;98752.31;5110609;28;20387;-85
2022/09/07 00:17:12;;;;;;;4.30;2.60;;;;;;;17.72;100.00;98718.38;5108405;28;20039;-85
2022/09/07 00:19:39;;;;;;;6.28;2.60;;;;;;;17.68;100.00;98737.25;5110926;27;20055;-85
2022/09/07 00:22:05;;;;;;;4.43;2.00;;;;;;;17.72;100.00;98734.03;5109867;28;20040;-85
2022/09/07 00:24:32;;;;;;;6.07;2.20;;;;;;;17.74;100.00;98729.97;5110936;28;20403;-85
2022/09/07 00:26:59;;;;;;;5.72;2.40;;;;;;;17.71;100.00;98711.22;5116577;28;20123;-84
2022/09/07 00:29:25;;;;;;;3.40;2.03;;;;;;;17.74;100.00;98720.88;5119906;28;20063;-84
2022/09/07 00:31:52;;;;;;;3.78;1.90;;;;;;;17.74;100.00;98718.97;5118214;28;20054;-84
2022/09/07 00:34:20;;;;;;;6.03;2.38;;;;;;;17.74;100.00;98737.38;5113334;28;20051;-85
2022/09/07 00:36:47;;;;;;;7.63;2.38;;;;;;;17.77;100.00;98728.66;5114647;28;20048;-86
2022/09/07 00:39:13;;;;;;;4.43;2.38;;;;;;;17.64;100.00;98719.59;5111376;28;20487;-86
2022/09/07 00:41:40;;;;;;;8.07;2.85;;;;;;;17.62;100.00;98732.72;5110503;28;20040;-85
2022/09/07 00:44:54;;;;;;;4.68;2.10;;;;;;;17.66;100.00;98720.19;5109114;28;20040;-85
2022/09/07 00:47:25;;;;;;;6.53;2.42;;;;;;;17.67;100.00;98713.63;4993418;28;20046;-86
2022/09/07 00:49:58;;;;;;;4.00;2.45;;;;;;;17.58;100.00;98687.56;5090704;27;20059;-86
2022/09/07 00:52:28;;;;;;;7.45;2.33;;;;;;;17.73;100.00;98688.97;5109976;28;20498;-85
2022/09/07 00:54:58;;;;;;;5.57;2.35;;;;;;;17.69;100.00;98694.97;5109913;28;20039;-85
2022/09/07 00:57:26;;;;;;;5.63;2.05;;;;;;;17.73;100.00;98672.47;5110261;28;20487;-86
2022/09/07 00:59:56;;;;;;;7.32;2.22;;;;;;;17.84;100.00;98677.13;5110341;28;20054;-85
2022/09/07 01:02:24;;;;;;;4.47;1.52;;;;;;;17.78;100.00;98662.44;5110119;28;20043;-85
2022/09/07 01:04:56;;;;;;;5.10;1.88;;;;;;;17.87;100.00;98680.19;5110622;28;20043;-85
2022/09/07 01:07:23;;;;;;;2.92;1.88;;;;;;;17.85;100.00;98678.78;5110675;28;20075;-85
2022/09/07 01:09:50;;;;;;;9.57;2.65;;;;;;;17.80;100.00;98663.00;5102559;28;20122;-85
2022/09/07 01:12:16;;;;;;;3.90;2.83;;;;;;;17.80;100.00;98671.25;5113507;28;20047;-85
2022/09/07 01:14:48;;;;;;;4.93;2.33;;;;;;;17.71;100.00;98664.47;5113963;27;20044;-86
2022/09/07 01:17:22;;;;;;;9.65;2.40;;;;;;;17.69;100.00;98689.47;5114752;28;20040;-85
2022/09/07 01:20:30;;;;;;;3.35;2.35;;;;;;;17.64;100.00;98675.63;5114138;28;20422;-86
2022/09/07 01:23:17;;;;;;;3.25;1.67;;;;;;;17.61;100.00;98681.56;5112883;28;20617;-86
2022/09/07 01:25:55;;;;;;;4.28;1.80;;;;;;;17.62;100.00;98674.19;5112155;28;20054;-86
2022/09/07 01:28:25;;;;;;;7.22;2.30;;;;;;;17.59;100.00;98674.66;5114194;28;20104;-85
2022/09/07 01:30:58;;;;;;;6.90;2.40;;;;;;;17.46;100.00;98651.03;5113968;28;20047;-86
2022/09/07 01:33:43;;;;;;;4.50;2.88;;;;;;;17.58;100.00;98668.31;5113606;28;20055;-86
2022/09/07 01:36:22;;;;;;;4.40;2.45;;;;;;;17.60;100.00;98679.94;5114163;28;20050;-85
2022/09/07 01:38:53;;;;;;;7.35;2.08;;;;;;;17.61;100.00;98687.06;5113049;28;20101;-86
2022/09/07 01:41:24;;;;;;;4.20;2.00;;;;;;;17.55;100.00;98695.47;5113995;28;20054;-86
2022/09/07 01:43:59;;;;;;;5.53;2.60;;;;;;;17.45;100.00;98683.19;5112994;28;20480;-85
2022/09/07 01:46:28;;;;;;;4.55;2.33;;;;;;;17.44;100.00;98691.66;5113672;28;20482;-85
2022/09/07 01:49:00;;;;;;;11.70;2.58;;;;;;;17.49;100.00;98684.38;5113503;28;20036;-86
2022/09/07 01:51:32;;;;;;;7.95;2.17;;;;;;;17.43;100.00;98698.22;5113795;27;20050;-85
2022/09/07 01:54:06;;;;;;;5.82;2.28;;;;;;;17.35;100.00;98682.94;5113106;28;20063;-85
2022/09/07 01:56:36;;;;;;;4.57;1.80;;;;;;;17.39;100.00;98683.28;5113614;28;20054;-85
2022/09/07 01:59:10;;;;;;;11.30;2.53;;;;;;;17.42;100.00;98686.41;5113280;28;20055;-86
2022/09/07 02:01:41;;;;;;;6.60;2.40;;;;;;;17.49;100.00;98695.38;5110214;28;20089;-85
2022/09/07 02:04:12;;;;;;;7.20;2.17;;;;;;;17.48;100.00;98696.44;5112742;28;20047;-85
2022/09/07 02:06:44;;;;;;;2.50;2.30;;;;;;;17.58;100.00;98706.81;5113484;28;20047;-86
2022/09/07 02:09:15;;;;;;;7.43;2.60;;;;;;;17.50;100.00;98691.53;5113076;28;20059;-85
2022/09/07 02:11:46;;;;;;;6.75;2.25;;;;;;;17.50;100.00;98702.50;5113228;27;20154;-85
2022/09/07 02:14:19;;;;;;;3.90;2.40;;;;;;;17.47;100.00;98686.50;5112563;28;20059;-85
2022/09/07 02:16:53;;;;;;;2.30;2.00;;;;;;;17.56;100.00;98706.22;5110332;28;20051;-86
2022/09/07 02:19:21;;;;;;;9.43;2.38;;;;;;;17.46;100.00;98692.25;5113299;28;20047;-85
2022/09/07 02:21:57;;;;;;;3.72;2.55;;;;;;;17.62;100.00;98712.66;5112590;28;20043;-86
2022/09/07 02:24:27;;;;;;;5.22;2.45;;;;;;;17.52;100.00;98708.63;5104408;28;20053;-86
2022/09/07 02:26:55;;;;;;;4.35;2.20;;;;;;;17.56;100.00;98714.47;5112900;28;20451;-86
2022/09/07 02:29:24;;;;;;;4.82;2.25;;;;;;;17.63;100.00;98717.91;5111989;28;20082;-85
2022/09/07 02:31:50;;;;;;;5.15;2.45;;;;;;;17.61;100.00;98721.97;5112684;28;20139;-86
2022/09/07 02:34:18;;;;;;;4.82;2.75;;;;;;;17.55;100.00;98733.94;5112154;27;20043;-85
2022/09/07 02:36:48;;;;;;;8.32;2.75;;;;;;;17.51;100.00;98733.59;5112882;28;20067;-86
2022/09/07 02:39:15;;;;;;;6.72;2.30;;;;;;;17.40;100.00;98727.00;5112876;28;20479;-86
2022/09/07 02:41:43;;;;;;;8.07;2.65;;;;;;;17.36;100.00;98747.81;5112313;28;20539;-85
2022/09/07 02:44:15;;;;;;;10.18;2.50;;;;;;;17.28;100.00;98751.78;5111125;28;20403;-85
2022/09/07 02:47:10;;;;;;;4.72;2.72;;;;;;;17.43;100.00;98776.03;5112449;28;20052;-85
2022/09/07 02:49:55;;;;;;;8.52;2.20;;;;;;;17.34;100.00;98782.91;5096811;28;20148;-85
2022/09/07 02:52:35;;;;;;;4.55;2.28;;;;;;;17.39;100.00;98793.19;5112143;28;20134;-85
2022/09/07 02:55:13;;;;;;;6.00;2.30;;;;;;;17.46;100.00;98794.78;5111861;28;20544;-86
2022/09/07 02:57:49;;;;;;;10.40;2.67;;;;;;;17.40;100.00;98784.72;5103199;28;20490;-86
2022/09/07 03:00:19;;;;;;;3.85;2.05;;;;;;;17.51;100.00;98772.06;5112389;28;20054;-85
2022/09/07 03:02:55;;;;;;;7.90;2.95;;;;;;;17.40;100.00;98781.13;5104083;28;20039;-86
2022/09/07 03:05:27;;;;;;;4.30;2.17;;;;;;;17.39;100.00;98771.22;5112257;27;20048;-85
2022/09/07 03:07:59;;;;;;;8.80;2.97;;;;;;;17.27;100.00;98771.25;5112471;28;20475;-85
2022/09/07 03:10:27;;;;;;;9.75;2.97;;;;;;;17.21;100.00;98766.66;5112249;28;20097;-85
2022/09/07 03:12:53;;;;;;;8.02;2.63;;;;;;;17.32;100.00;98754.88;5110752;28;20440;-87
2022/09/07 03:15:23;;;;;;;6.28;2.50;;;;;;;17.24;100.00;98763.47;5112108;28;20062;-86
2022/09/07 03:17:51;;;;;;;3.50;2.20;;;;;;;17.11;100.00;98768.09;5102582;28;20047;-86
2022/09/07 03:20:19;;;;;;;3.20;2.50;;;;;;;17.18;100.00;98776.25;5112310;28;20054;-86
2022/09/07 03:22:47;;;;;;;4.97;2.47;;;;;;;17.29;100.00;98778.16;5110746;28;20052;-86
2022/09/07 03:25:14;;;;;;;7.15;2.50;;;;;;;17.15;100.00;98763.81;5111776;28;20448;-86
2022/09/07 03:27:40;;;;;;;8.60;3.03;;;;;;;17.29;100.00;98780.06;5111369;28;20051;-84
2022/09/07 03:30:10;;;;;;;4.63;2.65;;;;;;;17.10;100.00;98760.09;5111874;28;20406;-84
2022/09/07 03:32:38;;;;;;;4.15;2.78;;;;;;;17.16;100.00;98772.88;5110435;28;20067;-84
2022/09/07 03:35:08;;;;;;;7.60;3.13;;;;;;;17.17;100.00;98766.31;5112148;28;20058;-84
2022/09/07 03:37:35;;;;;;;;;;;;;;;17.03;100.00;98775.88;5111943;28;20138;-84
2022/09/07 03:40:02;;;;;;;8.38;2.58;;;;;;;16.93;100.00;98740.75;5111071;28;20378;-85
2022/09/07 03:42:28;;;;;;;3.88;2.42;;;;;;;17.05;100.00;98755.31;5106786;28;20418;-84
2022/09/07 03:44:55;;;;;;;3.13;2.10;;;;;;;16.89;100.00;98748.63;5111558;28;20047;-84
2022/09/07 03:47:22;;;;;;;4.60;2.28;;;;;;;16.80;100.00;98744.50;5111815;28;20054;-84
2022/09/07 03:49:50;;;;;;;4.63;2.38;;;;;;;16.99;100.00;98762.59;5111334;28;20051;-85
2022/09/07 03:52:18;;;;;;;4.18;2.40;;;;;;;16.84;100.00;98747.63;5110608;28;20062;-84
2022/09/07 03:54:45;;;;;;;3.85;2.53;;;;;;;16.90;100.00;98753.03;5110407;28;20082;-84
2022/09/07 03:57:13;;;;;;;5.22;2.10;;;;;;;16.81;100.00;98759.91;5111323;28;20047;-85
2022/09/07 03:59:40;;;;;;;6.93;2.10;;;;;;;16.73;100.00;98746.53;5111391;28;20048;-84
2022/09/07 04:02:07;;;;;;;2.42;2.10;;;;;;;16.81;100.00;98768.97;5110827;28;20047;-84
2022/09/07 04:04:33;;;;;;;10.50;2.70;;;;;;;16.81;100.00;98754.41;5111232;28;20108;-84
2022/09/07 04:07:00;;;;;;;6.07;2.53;;;;;;;16.79;100.00;98760.16;5111520;27;20422;-85
2022/09/07 04:09:28;;;;;;;3.60;2.35;;;;;;;16.56;100.00;98738.97;5110454;28;20495;-84
2022/09/07 04:11:55;;;;;;;6.30;2.20;;;;;;;16.56;100.00;98762.81;5110902;28;20043;-84
2022/09/07 04:14:21;;;;;;;10.65;2.63;;;;;;;16.69;100.00;98773.59;5110703;28;20047;-84
2022/09/07 04:16:49;;;;;;;3.17;1.95;;;;;;;16.51;100.00;98762.69;5109056;28;20052;-85
2022/09/07 04:19:16;;;;;;;3.58;2.13;;;;;;;16.69;100.00;98772.78;5111462;28;20039;-84
2022/09/07 04:21:43;;;;;;;6.32;2.67;;;;;;;16.66;100.00;98775.97;5109939;28;20439;-84
2022/09/07 04:24:09;;;;;;;5.88;2.28;;;;;;;16.40;100.00;98767.06;5103192;28;20123;-84
2022/09/07 04:26:37;;;;;;;6.47;2.80;;;;;;;16.55;100.00;98783.94;5110453;28;20062;-85
2022/09/07 04:29:05;;;;;;;6.32;2.40;;;;;;;16.40;100.00;98761.59;5110554;28;20435;-84
2022/09/07 04:31:33;;;;;;;5.68;2.22;;;;;;;16.51;100.00;98790.97;5110402;28;20130;-84
2022/09/07 04:34:03;;;;;;;4.28;2.28;;;;;;;16.26;100.00;98775.47;5110071;28;20407;-84
2022/09/07 04:36:30;;;;;;;5.63;2.70;;;;;;;16.29;100.00;98790.66;5109912;28;20047;-84
2022/09/07 04:38:59;;;;;;;7.05;2.45;;;;;;;16.35;100.00;98786.13;5108707;28;20071;-84
2022/09/07 04:41:27;;;;;;;4.40;2.40;;;;;;;16.32;100.00;98772.88;5110748;28;20153;-84
2022/09/07 04:43:57;;;;;;;8.48;2.42;;;;;;;16.36;100.00;98783.13;5111087;28;20423;-84
2022/09/07 04:46:25;;;;;;;6.95;2.53;;;;;;;16.39;100.00;98779.94;5115074;28;20043;-84
2022/09/07 04:48:53;;;;;;;4.60;2.72;;;;;;;16.21;100.00;98766.25;5114802;28;20047;-84
2022/09/07 04:51:22;;;;;;;7.55;2.63;;;;;;;16.20;100.00;98792.88;5114011;27;20110;-84
2022/09/07 04:53:50;;;;;;;5.85;2.45;;;;;;;16.19;100.00;98782.13;5114333;28;20486;-84
2022/09/07 04:56:17;;;;;;;5.57;2.80;;;;;;;16.20;100.00;98773.66;5115269;27;20053;-84
2022/09/07 04:58:45;;;;;;;6.65;2.70;;;;;;;16.17;100.00;98774.13;5114856;28;20051;-84
2022/09/07 05:01:15;;;;;;;7.15;2.47;;;;;;;16.29;100.00;98760.47;5114752;27;20050;-84
2022/09/07 05:03:42;;;;;;;;;;;;;;;16.39;100.00;98768.97;5114669;28;20061;-84
2022/09/07 05:06:09;;;;;;;4.03;2.30;;;;;;;16.24;100.00;98749.34;5113726;28;19923;-85
2022/09/07 05:08:36;;;;;;;4.60;2.63;;;;;;;16.30;100.00;98762.13;5114752;28;20514;-84
2022/09/07 05:11:03;;;;;;;5.18;2.58;;;;;;;16.14;100.00;98751.78;5114457;28;20050;-84
2022/09/07 05:13:31;;;;;;;5.68;3.28;;;;;;;16.22;100.00;98767.94;5113770;28;20396;-84
2022/09/07 05:15:58;;;;;;;8.88;2.47;;;;;;;16.15;100.00;98761.72;5114304;27;20429;-84
2022/09/07 05:18:26;;;;;;;5.55;3.17;;;;;;;16.07;100.00;98774.66;5112113;28;20372;-84
2022/09/07 05:20:53;;;;;;;5.82;2.55;;;;;;;16.17;100.00;98790.59;5114118;28;20058;-84
2022/09/07 05:23:20;;;;;;;4.90;2.55;;;;;;;16.20;100.00;98792.00;5113134;28;20058;-84
2022/09/07 05:25:47;;;;;;;9.55;2.70;;;;;;;16.30;100.00;98800.53;5114275;28;20088;-85
2022/09/07 05:28:14;;;;;;;4.50;2.42;;;;;;;16.33;100.00;98793.75;5114485;28;20051;-85
2022/09/07 05:30:40;;;;;;;7.25;3.00;;;;;;;16.31;100.00;98798.66;5114490;27;20066;-85
2022/09/07 05:33:07;;;;;;;5.85;3.15;;;;;;;16.30;100.00;98775.84;5112122;28;20077;-85
2022/09/07 05:35:35;;;;;;;6.03;3.35;;;;;;;16.28;100.00;98784.31;5113947;28;20040;-85
2022/09/07 05:38:02;;;;;;;11.23;3.17;;;;;;;16.31;100.00;98788.50;5114422;28;20074;-85
2022/09/07 05:40:31;;;;;;;6.18;3.00;;;;;;;16.30;100.00;98797.78;5105459;28;20130;-84
2022/09/07 05:42:58;;;;;;;5.68;3.38;;;;;;;16.48;100.00;98807.06;5113080;28;20044;-84
2022/09/07 05:45:25;;;;;;;7.65;2.85;;;;;;;16.41;100.00;98815.38;5115920;28;20616;-84
2022/09/07 05:47:54;;;;;;;5.57;3.17;;;;;;;16.52;100.00;98820.06;5112491;28;20402;-85
2022/09/07 05:50:20;;;;;;;9.05;3.45;;;;;;;16.60;100.00;98810.69;5113538;28;20048;-85
2022/09/07 05:52:48;;;;;;;8.88;3.08;;;;;;;16.63;100.00;98818.44;5113043;28;20086;-85
2022/09/07 05:55:15;;;;;;;6.53;4.53;;;;;;;16.72;100.00;98800.56;5112755;28;20487;-85
2022/09/07 05:57:42;;;;;;;9.75;2.50;;;;;;;16.90;100.00;98815.34;5113460;28;20517;-85
2022/09/07 06:00:10;;;;;;;4.53;2.70;;;;;;;17.06;100.00;98811.09;5112635;28;20055;-85
2022/09/07 06:02:36;;;;;;;6.82;2.63;;;;;;;17.14;100.00;98818.97;5108428;28;20058;-84
2022/09/07 06:05:05;;;;;;;6.88;3.03;;;;;;;17.12;100.00;98821.97;5113597;28;20130;-85
2022/09/07 06:07:31;;;;;;;4.85;3.22;;;;;;;17.22;100.00;98834.28;5112863;28;20498;-84
2022/09/07 06:09:59;;;;;;;7.95;3.15;;;;;;;17.32;100.00;98831.78;5113376;28;20039;-85
2022/09/07 06:12:26;;;;;;;8.60;3.03;;;;;;;17.38;100.00;98814.34;5094002;28;20463;-85
2022/09/07 06:14:53;;;;;;;4.35;2.50;;;;;;;17.52;100.00;98817.69;5112662;28;20096;-85
2022/09/07 06:17:19;;;;;;;8.38;2.85;;;;;;;17.69;100.00;98804.09;5108610;28;20046;-85
2022/09/07 06:19:46;;;;;;;7.50;2.85;;;;;;;17.77;100.00;98814.72;5112460;28;20044;-85
2022/09/07 06:22:13;;;;;;;6.60;2.67;;;;;;;17.84;100.00;98795.34;5112574;28;20049;-85
2022/09/07 06:24:39;;;;;;;5.00;3.47;;;;;;;18.21;100.00;98806.03;5112125;28;20089;-85
2022/09/07 06:27:07;;;;;;;7.78;3.33;;;;;;;18.58;100.00;98805.69;5113297;28;20050;-84
2022/09/07 06:29:34;;;;;;;5.25;2.67;;;;;;;18.93;100.00;98810.19;5113041;28;20047;-84
2022/09/07 06:32:01;;;;;;;6.15;2.90;;;;;;;19.42;96.24;98809.63;5111953;28;20039;-84
2022/09/07 06:34:27;;;;;;;8.25;2.60;;;;;;;19.96;92.77;98825.63;5112238;28;20040;-84
2022/09/07 06:36:55;;;;;;;7.97;2.95;;;;;;;20.26;89.46;98807.81;5112938;28;20039;-84
2022/09/07 06:39:22;;;;;;;6.65;3.00;;;;;;;20.38;88.24;98822.28;5112404;28;20498;-84
2022/09/07 06:41:48;;;;;;;4.43;2.10;;;;;;;20.47;88.42;98811.63;5112353;28;20558;-84
2022/09/07 06:44:17;;;;;;;9.13;2.65;;;;;;;20.75;86.71;98816.13;5112094;28;20403;-85
2022/09/07 06:46:43;;;;;;;3.83;2.45;;;;;;;20.96;85.09;98811.63;5111286;28;20108;-85
2022/09/07 06:49:10;;;;;;;7.45;2.08;;;;;;;20.93;83.74;98806.63;5112712;28;20147;-85
2022/09/07 06:51:37;;;;;;;7.00;2.40;;;;;;;21.28;82.98;98823.81;5112209;28;20517;-84
2022/09/07 06:54:04;;;;;;;12.82;3.88;;;;;;;21.08;84.39;98811.47;5111828;28;20547;-84
2022/09/07 06:56:31;;;;;;;8.45;2.17;;;;;;;20.58;86.28;98794.09;5112387;28;20105;-84
2022/09/07 06:58:58;;;;;;;4.05;2.53;;;;;;;20.50;88.88;98805.59;5111513;28;20075;-85
2022/09/07 07:01:27;;;;;;;5.90;2.08;;;;;;;20.45;88.59;98809.13;5112051;28;20510;-84
2022/09/07 07:03:55;;;;;;;16.20;2.30;;;;;;;20.77;86.56;98799.28;5103546;28;20448;-85
2022/09/07 07:06:22;;;;;;;7.18;2.00;;;;;;;21.02;84.36;98769.13;5112496;28;20122;-85
2022/09/07 07:08:53;;;;;;;8.65;2.45;;;;;;;21.64;80.98;98782.63;5110935;28;20535;-84
2022/09/07 07:11:19;;;;;;;11.48;3.10;;;;;;;21.86;79.74;98785.22;5112535;27;20047;-85
2022/09/07 07:13:46;;;;;;;5.68;2.30;;;;;;;21.68;79.28;98773.53;5110437;28;20108;-84
2022/09/07 07:16:14;;;;;;;9.23;2.40;;;;;;;21.78;79.52;98792.09;5111780;28;20049;-85
2022/09/07 07:18:43;;;;;;;6.05;2.03;;;;;;;21.81;78.80;98794.34;5110086;28;20407;-85
2022/09/07 07:21:12;;;;;;;4.20;1.90;;;;;;;21.96;76.95;98798.31;5112143;28;20102;-84
2022/09/07 07:23:39;;;;;;;6.05;1.70;;;;;;;22.08;75.26;98785.06;5110744;28;20050;-85
2022/09/07 07:26:07;;;;;;;5.85;1.95;;;;;;;22.09;75.78;98803.34;5111815;28;20046;-85
2022/09/07 07:28:37;;;;;;;7.63;1.98;;;;;;;22.06;75.91;98796.41;5110973;28;20435;-85
2022/09/07 07:31:05;;;;;;;9.20;2.10;;;;;;;22.18;77.41;98801.72;5103984;28;20039;-85
2022/09/07 07:33:33;;;;;;;6.85;2.03;;;;;;;22.15;75.05;98804.22;5109009;28;20051;-85
2022/09/07 07:36:16;;;;;;;5.20;2.03;;;;;;;22.15;76.31;98810.56;5111822;28;20043;-85
2022/09/07 07:38:44;;;;;;;13.75;2.55;;;;;;;22.14;75.26;98816.38;5111824;27;20674;-85
2022/09/07 07:41:12;;;;;;;16.90;2.40;;;;;;;22.12;76.20;98794.50;5111602;28;20058;-85
2022/09/07 07:43:39;;;;;;;8.25;1.83;;;;;;;22.19;75.02;98817.25;5110673;28;20057;-85
2022/09/07 07:46:07;;;;;;;9.65;1.95;;;;;;;22.14;74.75;98838.53;5102961;28;20483;-85
2022/09/07 07:48:36;;;;;;;14.20;2.20;;;;;;;22.07;75.13;98822.16;5109790;28;20059;-86
2022/09/07 07:51:05;;;;;;;8.32;1.98;;;;;;;22.38;76.14;98841.72;5110449;28;20044;-86
2022/09/07 07:53:35;;;;;;;8.35;2.08;;;;;;;22.39;75.17;98851.69;5117086;27;20051;-86
2022/09/07 07:56:03;;;;;;;11.52;1.92;;;;;;;22.39;74.62;98833.13;5121447;28;20051;-85
2022/09/07 07:58:31;;;;;;;4.80;1.98;;;;;;;22.45;75.48;98837.59;5118969;28;20055;-85
2022/09/07 08:01:02;;;;;;;11.95;2.00;;;;;;;22.39;75.35;98835.09;5116427;28;20052;-85
2022/09/07 08:03:29;;;;;;;7.93;2.35;;;;;;;22.39;74.36;98848.94;5111534;28;20131;-86
2022/09/07 08:05:56;;;;;;;6.38;1.88;;;;;;;22.35;75.09;98836.72;5111216;28;20050;-85
2022/09/07 08:08:24;;;;;;;6.25;2.25;;;;;;;22.44;75.12;98857.25;5111499;28;20071;-85
2022/09/07 08:10:53;;;;;;;10.45;2.30;;;;;;;22.59;73.86;98876.69;5111225;28;20047;-85
2022/09/07 08:13:21;;;;;;;7.70;2.20;;;;;;;22.55;73.60;98852.56;5110855;28;20364;-85
2022/09/07 08:15:47;;;;;;;9.15;2.55;;;;;;;22.56;73.38;98860.63;5111172;27;20052;-86
2022/09/07 08:18:16;;;;;;;5.25;1.80;;;;;;;22.57;73.87;98859.53;5103782;28;20507;-85
2022/09/07 08:20:43;;;;;;;4.35;2.00;;;;;;;22.60;74.67;98877.53;5109472;28;20052;-86
2022/09/07 08:23:10;;;;;;;7.15;2.45;;;;;;;22.54;72.94;98871.16;5110116;28;20062;-85
2022/09/07 08:25:37;;;;;;;10.70;2.13;;;;;;;22.70;73.17;98876.72;5110951;28;20055;-85
2022/09/07 08:28:05;;;;;;;5.65;1.75;;;;;;;22.72;72.92;98874.53;5110841;28;20418;-85
2022/09/07 08:30:32;;;;;;;10.23;2.08;;;;;;;22.74;72.39;98855.69;5111091;28;20039;-85
2022/09/07 08:32:58;;;;;;;5.25;1.85;;;;;;;22.78;70.98;98857.66;5109407;28;20316;-86
2022/09/07 08:35:25;;;;;;;7.40;1.85;;;;;;;22.85;71.40;98859.31;5106810;28;20482;-86
2022/09/07 08:37:52;;;;;;;11.00;2.17;;;;;;;22.98;71.42;98873.47;5111205;28;20387;-85
2022/09/07 08:40:21;;;;;;;5.18;1.90;;;;;;;22.94;71.16;98877.09;5110672;28;20048;-86
2022/09/07 08:42:59;;;;;;;9.98;2.22;;;;;;;22.88;71.00;98862.38;5110102;28;20130;-85
2022/09/07 08:45:32;;;;;;;8.95;2.20;;;;;;;23.02;71.55;98861.84;5110590;28;20040;-85
2022/09/07 08:47:58;;;;;;;6.07;1.90;;;;;;;23.17;71.66;98888.81;5110402;27;20056;-85
2022/09/07 08:50:32;;;;;;;11.18;2.30;;;;;;;23.30;70.26;98875.22;5111087;28;20061;-85
2022/09/07 08:53:03;;;;;;;6.05;1.48;;;;;;;23.37;70.91;98866.66;5110515;28;20103;-85
2022/09/07 08:55:32;;;;;;;7.85;1.70;;;;;;;23.35;69.51;98852.25;5107949;28;20385;-85
2022/09/07 08:58:07;;;;;;;8.45;2.53;;;;;;;23.53;69.81;98870.28;5110890;28;20051;-84
2022/09/07 09:00:38;;;;;;;8.20;2.88;;;;;;;23.51;69.31;98869.69;5103180;28;20093;-85
2022/09/07 09:03:07;;;;;;;12.02;1.90;;;;;;;23.47;69.42;98858.34;5105914;28;20043;-85
2022/09/07 09:05:42;;;;;;;6.53;1.75;;;;;;;23.53;68.82;98848.06;5108527;28;20052;-85
2022/09/07 09:08:24;;;;;;;10.10;1.55;;;;;;;23.49;69.58;98856.09;5110530;27;20075;-83
2022/09/07 09:11:01;;;;;;;7.13;2.17;;;;;;;23.61;68.75;98866.09;5110624;27;20040;-85
2022/09/07 09:13:43;;;;;;;4.80;1.60;;;;;;;23.47;68.28;98858.34;5110347;27;20051;-84
2022/09/07 09:16:16;;;;;;;6.97;1.70;;;;;;;23.58;68.18;98858.34;5109291;28;20052;-84
2022/09/07 09:18:54;;;;;;;4.93;1.70;;;;;;;23.74;68.16;98861.91;5107761;28;20051;-86
2022/09/07 09:21:21;;;;;;;11.05;2.08;;;;;;;23.76;69.04;98868.88;5110233;28;20414;-85
2022/09/07 09:23:51;;;;;;;4.20;1.45;;;;;;;23.72;67.64;98856.66;5109513;28;20051;-85
2022/09/07 09:26:22;;;;;;;10.00;1.90;;;;;;;23.82;67.21;98841.94;5110388;28;20044;-85
2022/09/07 09:28:49;;;;;;;7.00;1.73;;;;;;;23.96;66.98;98861.66;5110599;28;20056;-86
2022/09/07 09:31:20;;;;;;;6.05;1.60;;;;;;;23.94;67.18;98855.56;5110731;28;20059;-84
2022/09/07 09:34:10;;;;;;;8.15;2.08;;;;;;;24.05;66.58;98856.38;5113363;28;20043;-85
2022/09/07 09:36:42;;;;;;;7.53;1.75;;;;;;;24.12;66.52;98832.72;5114125;28;20063;-84
2022/09/07 09:39:29;;;;;;;8.05;1.83;;;;;;;24.42;65.67;98839.31;5112811;28;20054;-85
2022/09/07 09:41:58;;;;;;;3.35;1.70;;;;;;;24.37;64.36;98836.53;5110442;28;20399;-85
2022/09/07 09:44:31;;;;;;;7.18;1.95;;;;;;;24.33;65.14;98833.50;5113126;28;20483;-85
2022/09/07 09:46:59;;;;;;;9.93;1.77;;;;;;;24.38;65.52;98832.63;5114073;28;20047;-85
2022/09/07 09:49:34;;;;;;;5.82;1.70;;;;;;;24.52;65.10;98832.84;5112617;28;20135;-85
2022/09/07 09:52:03;;;;;;;8.00;2.50;;;;;;;24.61;64.97;98819.22;5110169;28;20479;-85
2022/09/07 09:54:33;;;;;;;4.43;1.77;;;;;;;24.83;64.14;98816.88;5113020;28;20048;-85
2022/09/07 09:57:00;;;;;;;5.80;1.48;;;;;;;24.92;63.16;98806.81;5113667;28;20039;-85
2022/09/07 09:59:28;;;;;;;4.53;1.55;;;;;;;24.89;62.20;98823.25;5111968;28;20050;-85
2022/09/07 10:01:55;;;;;;;4.63;1.60;;;;;;;25.04;61.76;98813.97;5109213;28;20082;-85
2022/09/07 10:04:32;;;;;;;4.40;1.50;;;;;;;25.04;62.13;98825.91;5112845;28;20364;-85
2022/09/07 10:07:08;;;;;;;8.50;1.90;;;;;;;24.88;61.19;98811.28;5105289;28;20051;-86
2022/09/07 10:09:38;;;;;;;4.90;1.77;;;;;;;24.77;62.06;98820.00;5112184;28;20054;-85
2022/09/07 10:12:07;;;;;;;10.13;1.88;;;;;;;24.58;63.06;98808.66;5105460;28;20043;-85
2022/09/07 10:14:36;;;;;;;4.45;1.60;;;;;;;24.68;63.38;98808.63;5111936;28;20043;-85
2022/09/07 10:17:13;;;;;;;5.33;1.47;;;;;;;25.02;61.67;98805.91;5112012;28;20053;-85
2022/09/07 10:19:42;;;;;;;6.65;1.77;;;;;;;25.29;59.67;98806.53;5113018;28;20135;-84
2022/09/07 10:22:23;;;;;;;4.10;1.83;;;;;;;25.53;58.26;98801.06;5112587;28;20491;-83
2022/09/07 10:24:50;;;;;;;6.90;2.50;;;;;;;25.61;57.44;98811.59;5112309;28;20104;-85
2022/09/07 10:27:28;;;;;;;19.92;3.83;;;;;;;25.65;56.45;98804.28;5111603;28;20126;-85
2022/09/07 10:29:55;;;;;;;4.88;1.50;;;;;;;25.77;55.33;98782.47;5112560;28;20047;-85
2022/09/07 10:32:41;;;;;;;5.88;2.20;;;;;;;25.94;54.88;98790.34;5112237;28;20062;-85
2022/09/07 10:35:17;;;;;;;5.43;1.42;;;;;;;26.23;55.99;98791.44;5112920;28;20119;-83
2022/09/07 10:37:56;;;;;;;8.05;1.70;;;;;;;26.16;55.54;98774.25;5111025;28;20048;-83
2022/09/07 10:40:31;;;;;;;9.57;2.13;;;;;;;26.18;54.51;98783.13;5112724;28;20471;-83
2022/09/07 10:43:06;;;;;;;5.80;1.65;;;;;;;26.10;55.07;98781.84;5109235;28;20499;-82
2022/09/07 10:45:45;;;;;;;3.88;1.27;;;;;;;26.15;54.20;98781.81;5112476;28;20066;-83
2022/09/07 10:48:20;;;;;;;10.57;2.00;;;;;;;26.47;53.04;98774.69;5104848;28;20051;-83
2022/09/07 10:50:51;;;;;;;7.25;1.70;;;;;;;26.70;51.76;98783.34;5112147;28;20054;-82
2022/09/07 10:53:39;;;;;;;9.73;1.70;;;;;;;26.91;51.32;98767.13;5112061;28;20040;-83
2022/09/07 10:56:09;;;;;;;3.55;1.60;;;;;;;27.14;51.30;98756.97;5111515;28;20051;-83
2022/09/07 10:58:57;;;;;;;3.92;1.38;;;;;;;27.05;50.21;98748.47;5112518;28;20266;-83
2022/09/07 11:01:35;;;;;;;6.13;1.40;;;;;;;26.96;51.09;98753.09;5112212;28;20055;-82
2022/09/07 11:04:21;;;;;;;5.05;1.33;;;;;;;26.89;50.70;98735.91;5110933;27;20486;-82
2022/09/07 11:06:55;;;;;;;6.65;1.63;;;;;;;26.99;51.58;98753.31;5112029;28;20048;-83
2022/09/07 11:09:41;;;;;;;2.83;1.30;;;;;;;27.08;51.29;98738.66;5103751;28;20043;-82
2022/09/07 11:12:14;;;;;;;8.55;1.60;;;;;;;27.17;50.39;98751.63;5109580;28;20054;-84
2022/09/07 11:14:49;;;;;;;7.93;1.65;;;;;;;27.33;49.05;98735.47;5110650;27;20051;-83
2022/09/07 11:17:20;;;;;;;8.80;1.90;;;;;;;27.48;48.86;98739.94;5110995;28;20387;-83
2022/09/07 11:19:53;;;;;;;4.68;1.27;;;;;;;27.37;47.55;98741.28;5111746;28;20066;-84
2022/09/07 11:22:33;;;;;;;4.78;1.10;;;;;;;27.39;47.64;98722.25;5111180;28;20168;-83
2022/09/07 11:25:04;;;;;;;;;;;;;;;27.47;46.54;98735.50;5111925;28;20054;-83
2022/09/07 11:27:39;;;;;;;3.03;1.35;;;;;;;27.28;46.78;98724.38;5102379;28;19971;-83
2022/09/07 11:30:17;;;;;;;2.88;1.17;;;;;;;27.63;46.60;98729.66;5110141;28;20047;-84
2022/09/07 11:32:53;;;;;;;4.90;0.93;;;;;;;27.87;46.03;98716.31;5110964;28;20050;-84
2022/09/07 11:35:30;;;;;;;4.00;1.15;;;;;;;28.01;45.42;98710.72;5109881;28;20047;-84
2022/09/07 11:38:05;;;;;;;6.70;1.33;;;;;;;28.01;43.17;98724.69;5107090;28;20051;-84
2022/09/07 11:40:35;;;;;;;4.22;1.58;;;;;;;27.81;42.82;98711.97;5103509;28;20047;-83
2022/09/07 11:43:12;;;;;;;4.35;1.23;;;;;;;27.81;45.33;98705.56;5110751;28;20043;-84